sensor_id;sensor_type;location;lat;lon;timestamp;pressure;altitude;pressure_sealevel;temperature;humidity
55317;BME280;41178;48.956;8.130;2023-04-28T00:02:37;99252.81;;;11.10;52.11
55317;BME280;41178;48.956;8.130;2023-04-28T00:07:39;99277.81;;;11.24;52.10
55317;BME280;41178;48.956;8.130;2023-04-28T00:12:40;99311.81;;;12.52;49.80
55317;BME280;41178;48.956;8.130;2023-04-28T00:17:42;99332.19;;;12.86;49.28
55317;BME280;41178;48.956;8.130;2023-04-28T00:22:44;99355.75;;;12.78;49.39
55317;BME280;41178;48.956;8.130;2023-04-28T00:27:46;99318.59;;;11.74;50.79
55317;BME280;41178;48.956;8.130;2023-04-28T00:32:47;99334.66;;;11.81;51.15
55317;BME280;41178;48.956;8.130;2023-04-28T00:37:49;99321.06;;;12.69;49.15
55317;BME280;41178;48.956;8.130;2023-04-28T00:42:51;99345.75;;;13.63;47.81
55317;BME280;41178;48.956;8.130;2023-04-28T00:47:53;99319.19;;;12.77;48.69
55317;BME280;41178;48.956;8.130;2023-04-28T00:52:55;99329.97;;;12.16;50.15
55317;BME280;41178;48.956;8.130;2023-04-28T00:57:58;99328.44;;;11.67;51.03
55317;BME280;41178;48.956;8.130;2023-04-28T01:02:59;99348.31;;;12.13;50.52
55317;BME280;41178;48.956;8.130;2023-04-28T01:08:02;99357.06;;;13.27;48.26
55317;BME280;41178;48.956;8.130;2023-04-28T01:13:03;99382.03;;;13.86;47.68
55317;BME280;41178;48.956;8.130;2023-04-28T01:18:05;99323.06;;;13.53;46.48
55317;BME280;41178;48.956;8.130;2023-04-28T01:23:15;99339.91;;;13.35;47.46
55317;BME280;41178;48.956;8.130;2023-04-28T01:28:17;99375.72;;;14.81;45.60
55317;BME280;41178;48.956;8.130;2023-04-28T01:33:18;99324.28;;;14.64;45.89
55317;BME280;41178;48.956;8.130;2023-04-28T01:38:20;99327.06;;;14.32;46.83
55317;BME280;41178;48.956;8.130;2023-04-28T01:43:21;99289.34;;;14.83;45.35
55317;BME280;41178;48.956;8.130;2023-04-28T01:48:23;99294.69;;;11.86;50.96
55317;BME280;41178;48.956;8.130;2023-04-28T01:53:24;99348.06;;;12.95;48.43
55317;BME280;41178;48.956;8.130;2023-04-28T01:58:26;99375.13;;;12.13;49.89
55317;BME280;41178;48.956;8.130;2023-04-28T02:03:28;99372.19;;;11.88;51.60
55317;BME280;41178;48.956;8.130;2023-04-28T02:08:30;99344.56;;;11.19;52.45
55317;BME280;41178;48.956;8.130;2023-04-28T02:13:32;99377.78;;;11.86;50.68
55317;BME280;41178;48.956;8.130;2023-04-28T02:18:33;99367.13;;;11.51;51.43
55317;BME280;41178;48.956;8.130;2023-04-28T02:23:36;99322.34;;;13.25;47.61
55317;BME280;41178;48.956;8.130;2023-04-28T02:28:38;99324.19;;;13.38;47.71
55317;BME280;41178;48.956;8.130;2023-04-28T02:33:39;99333.88;;;14.10;46.01
55317;BME280;41178;48.956;8.130;2023-04-28T02:38:43;99428.16;;;16.27;43.72
55317;BME280;41178;48.956;8.130;2023-04-28T02:43:44;99364.84;;;15.80;44.29
55317;BME280;41178;48.956;8.130;2023-04-28T02:48:46;99344.97;;;15.63;45.18
55317;BME280;41178;48.956;8.130;2023-04-28T02:53:47;99354.50;;;15.77;46.03
55317;BME280;41178;48.956;8.130;2023-04-28T02:58:49;99361.03;;;16.66;45.10
55317;BME280;41178;48.956;8.130;2023-04-28T03:03:51;99243.13;;;14.24;47.75
55317;BME280;41178;48.956;8.130;2023-04-28T03:08:53;99299.47;;;14.62;48.06
55317;BME280;41178;48.956;8.130;2023-04-28T03:13:55;99270.84;;;14.86;48.58
55317;BME280;41178;48.956;8.130;2023-04-28T03:18:57;99249.91;;;15.67;47.02
55317;BME280;41178;48.956;8.130;2023-04-28T03:23:59;99266.84;;;15.98;46.65
55317;BME280;41178;48.956;8.130;2023-04-28T03:29:02;99320.94;;;13.61;51.51
55317;BME280;41178;48.956;8.130;2023-04-28T03:34:04;99266.03;;;12.99;52.25
55317;BME280;41178;48.956;8.130;2023-04-28T03:39:06;99283.91;;;12.66;52.82
55317;BME280;41178;48.956;8.130;2023-04-28T03:44:07;99304.38;;;12.34;54.26
55317;BME280;41178;48.956;8.130;2023-04-28T03:49:09;99296.25;;;14.03;51.89
55317;BME280;41178;48.956;8.130;2023-04-28T03:54:11;99289.28;;;13.95;51.13
55317;BME280;41178;48.956;8.130;2023-04-28T03:59:12;99298.34;;;14.01;50.65
55317;BME280;41178;48.956;8.130;2023-04-28T04:04:14;99300.66;;;15.22;48.75
55317;BME280;41178;48.956;8.130;2023-04-28T04:09:17;99298.34;;;14.51;50.33
55317;BME280;41178;48.956;8.130;2023-04-28T04:14:19;99306.19;;;15.45;47.49
55317;BME280;41178;48.956;8.130;2023-04-28T04:19:20;99321.53;;;13.18;52.17
55317;BME280;41178;48.956;8.130;2023-04-28T04:24:24;99264.53;;;12.58;52.93
55317;BME280;41178;48.956;8.130;2023-04-28T04:29:26;99286.38;;;13.33;52.27
55317;BME280;41178;48.956;8.130;2023-04-28T04:34:27;99227.59;;;12.26;54.07
55317;BME280;41178;48.956;8.130;2023-04-28T04:39:29;99299.75;;;12.88;53.55
55317;BME280;41178;48.956;8.130;2023-04-28T04:44:30;99273.75;;;12.82;53.04
55317;BME280;41178;48.956;8.130;2023-04-28T04:49:32;99294.22;;;13.66;51.20
55317;BME280;41178;48.956;8.130;2023-04-28T04:54:33;99280.78;;;13.35;52.24
55317;BME280;41178;48.956;8.130;2023-04-28T04:59:35;99305.34;;;12.86;53.75
55317;BME280;41178;48.956;8.130;2023-04-28T05:04:37;99277.19;;;12.96;53.15
55317;BME280;41178;48.956;8.130;2023-04-28T05:09:39;99286.78;;;13.37;52.94
55317;BME280;41178;48.956;8.130;2023-04-28T05:14:40;99281.56;;;13.42;53.46
55317;BME280;41178;48.956;8.130;2023-04-28T05:19:42;99305.94;;;13.47;54.32
55317;BME280;41178;48.956;8.130;2023-04-28T05:24:43;99297.22;;;13.00;55.62
55317;BME280;41178;48.956;8.130;2023-04-28T05:29:45;99300.63;;;13.34;55.75
55317;BME280;41178;48.956;8.130;2023-04-28T05:34:47;99281.44;;;12.51;57.76
55317;BME280;41178;48.956;8.130;2023-04-28T05:39:48;99277.78;;;13.11;57.02
55317;BME280;41178;48.956;8.130;2023-04-28T05:44:50;99285.50;;;12.94;58.14
55317;BME280;41178;48.956;8.130;2023-04-28T05:49:52;99278.94;;;12.70;59.54
55317;BME280;41178;48.956;8.130;2023-04-28T05:54:53;99218.78;;;11.86;60.29
55317;BME280;41178;48.956;8.130;2023-04-28T05:59:55;99270.28;;;12.41;60.48
55317;BME280;41178;48.956;8.130;2023-04-28T06:04:56;99265.34;;;12.38;61.09
55317;BME280;41178;48.956;8.130;2023-04-28T06:09:58;99274.16;;;12.72;60.46
55317;BME280;41178;48.956;8.130;2023-04-28T06:15:00;99277.94;;;12.37;61.93
55317;BME280;41178;48.956;8.130;2023-04-28T06:20:01;99307.56;;;13.03;59.95
55317;BME280;41178;48.956;8.130;2023-04-28T06:25:04;99332.28;;;13.25;60.75
55317;BME280;41178;48.956;8.130;2023-04-28T06:30:06;99315.81;;;13.08;60.02
55317;BME280;41178;48.956;8.130;2023-04-28T06:35:08;99258.38;;;12.17;62.32
55317;BME280;41178;48.956;8.130;2023-04-28T06:40:10;99329.03;;;13.09;61.49
55317;BME280;41178;48.956;8.130;2023-04-28T06:45:12;99415.34;;;14.24;58.89
55317;BME280;41178;48.956;8.130;2023-04-28T06:50:13;99354.75;;;13.82;58.31
55317;BME280;41178;48.956;8.130;2023-04-28T06:55:15;99342.00;;;13.64;60.58
55317;BME280;41178;48.956;8.130;2023-04-28T07:00:17;99281.94;;;13.00;61.96
55317;BME280;41178;48.956;8.130;2023-04-28T07:05:19;99341.41;;;13.62;60.34
55317;BME280;41178;48.956;8.130;2023-04-28T07:10:21;99324.97;;;13.45;60.29
55317;BME280;41178;48.956;8.130;2023-04-28T07:15:22;99340.22;;;13.58;60.56
55317;BME280;41178;48.956;8.130;2023-04-28T07:20:24;99391.63;;;14.14;59.75
55317;BME280;41178;48.956;8.130;2023-04-28T07:25:26;99340.66;;;13.48;60.95
55317;BME280;41178;48.956;8.130;2023-04-28T07:30:28;99290.41;;;12.97;61.31
55317;BME280;41178;48.956;8.130;2023-04-28T07:35:29;99421.69;;;14.61;59.35
55317;BME280;41178;48.956;8.130;2023-04-28T07:40:31;99381.06;;;14.12;60.01
55317;BME280;41178;48.956;8.130;2023-04-28T07:45:37;99453.75;;;15.13;57.62
55317;BME280;41178;48.956;8.130;2023-04-28T07:50:39;99354.97;;;14.13;59.41
55317;BME280;41178;48.956;8.130;2023-04-28T07:55:40;99397.75;;;14.53;58.89
55317;BME280;41178;48.956;8.130;2023-04-28T08:00:43;99353.56;;;14.03;60.90
55317;BME280;41178;48.956;8.130;2023-04-28T08:05:45;99397.22;;;14.88;59.05
55317;BME280;41178;48.956;8.130;2023-04-28T08:10:46;99417.75;;;14.89;59.48
55317;BME280;41178;48.956;8.130;2023-04-28T08:15:49;99364.63;;;14.20;61.13
55317;BME280;41178;48.956;8.130;2023-04-28T08:20:52;99366.78;;;14.12;61.37
55317;BME280;41178;48.956;8.130;2023-04-28T08:25:53;99379.44;;;14.36;59.56
55317;BME280;41178;48.956;8.130;2023-04-28T08:30:55;99419.50;;;15.02;59.14
55317;BME280;41178;48.956;8.130;2023-04-28T08:35:58;99446.84;;;15.24;59.35
55317;BME280;41178;48.956;8.130;2023-04-28T08:41:03;99384.13;;;14.48;60.99
55317;BME280;41178;48.956;8.130;2023-04-28T08:46:05;99414.09;;;14.76;61.22
55317;BME280;41178;48.956;8.130;2023-04-28T08:51:08;99349.22;;;14.34;61.01
55317;BME280;41178;48.956;8.130;2023-04-28T08:56:10;99471.66;;;15.69;58.65
55317;BME280;41178;48.956;8.130;2023-04-28T09:01:15;99393.38;;;14.52;62.46
55317;BME280;41178;48.956;8.130;2023-04-28T09:06:17;99436.91;;;14.99;61.25
55317;BME280;41178;48.956;8.130;2023-04-28T09:11:18;99468.56;;;15.47;60.50
55317;BME280;41178;48.956;8.130;2023-04-28T09:16:21;99397.41;;;14.68;61.61
55317;BME280;41178;48.956;8.130;2023-04-28T09:21:23;99411.47;;;14.95;62.49
55317;BME280;41178;48.956;8.130;2023-04-28T09:26:24;99485.81;;;16.14;59.12
55317;BME280;41178;48.956;8.130;2023-04-28T09:31:26;99325.22;;;14.58;62.26
55317;BME280;41178;48.956;8.130;2023-04-28T09:36:29;99443.38;;;15.72;61.15
55317;BME280;41178;48.956;8.130;2023-04-28T09:41:42;99417.69;;;15.51;62.00
55317;BME280;41178;48.956;8.130;2023-04-28T09:46:44;99385.78;;;15.48;61.69
55317;BME280;41178;48.956;8.130;2023-04-28T09:51:46;99388.66;;;15.35;62.41
55317;BME280;41178;48.956;8.130;2023-04-28T09:56:49;99421.72;;;15.79;60.56
55317;BME280;41178;48.956;8.130;2023-04-28T10:01:51;99376.59;;;15.19;62.74
55317;BME280;41178;48.956;8.130;2023-04-28T10:06:53;99284.47;;;14.29;64.04
55317;BME280;41178;48.956;8.130;2023-04-28T10:11:57;99358.59;;;14.50;64.63
55317;BME280;41178;48.956;8.130;2023-04-28T10:17:00;99339.81;;;14.44;64.99
55317;BME280;41178;48.956;8.130;2023-04-28T10:27:12;99388.22;;;15.86;61.39
55317;BME280;41178;48.956;8.130;2023-04-28T10:32:18;99396.41;;;15.80;62.13
55317;BME280;41178;48.956;8.130;2023-04-28T10:43:01;99339.28;;;15.52;62.09
55317;BME280;41178;48.956;8.130;2023-04-28T10:48:03;99323.00;;;15.10;63.87
55317;BME280;41178;48.956;8.130;2023-04-28T10:53:06;99400.69;;;16.41;61.15
55317;BME280;41178;48.956;8.130;2023-04-28T11:06:40;99162.75;;;17.07;58.17
55317;BME280;41178;48.956;8.130;2023-04-28T11:17:11;99110.03;;;17.05;57.19
55317;BME280;41178;48.956;8.130;2023-04-28T11:22:19;99272.78;;;19.10;54.28
55317;BME280;41178;48.956;8.130;2023-04-28T11:27:25;99220.88;;;19.88;52.85
55317;BME280;41178;48.956;8.130;2023-04-28T11:32:32;99198.66;;;19.91;52.82
55317;BME280;41178;48.956;8.130;2023-04-28T11:37:34;99093.09;;;18.21;55.25
55317;BME280;41178;48.956;8.130;2023-04-28T11:42:35;99104.44;;;18.62;55.78
55317;BME280;41178;48.956;8.130;2023-04-28T11:47:37;99102.16;;;18.76;54.62
55317;BME280;41178;48.956;8.130;2023-04-28T11:52:49;99057.41;;;18.02;55.14
55317;BME280;41178;48.956;8.130;2023-04-28T11:58:16;99074.38;;;15.69;60.96
55317;BME280;41178;48.956;8.130;2023-04-28T12:03:17;99147.66;;;18.30;56.35
55317;BME280;41178;48.956;8.130;2023-04-28T12:08:28;99166.81;;;18.68;55.33
55317;BME280;41178;48.956;8.130;2023-04-28T12:13:30;99108.81;;;17.46;58.38
55317;BME280;41178;48.956;8.130;2023-04-28T12:18:35;99075.53;;;16.37;60.61
55317;BME280;41178;48.956;8.130;2023-04-28T12:23:37;99087.59;;;17.21;59.24
55317;BME280;41178;48.956;8.130;2023-04-28T12:28:40;99148.63;;;17.51;59.76
55317;BME280;41178;48.956;8.130;2023-04-28T12:33:44;99129.88;;;18.17;57.56
55317;BME280;41178;48.956;8.130;2023-04-28T12:38:47;99078.13;;;17.75;58.26
55317;BME280;41178;48.956;8.130;2023-04-28T12:43:49;99149.63;;;18.84;55.59
55317;BME280;41178;48.956;8.130;2023-04-28T12:48:50;99084.38;;;17.58;58.64
55317;BME280;41178;48.956;8.130;2023-04-28T12:53:52;99179.34;;;19.88;54.04
55317;BME280;41178;48.956;8.130;2023-04-28T12:58:54;99165.88;;;19.61;54.97
55317;BME280;41178;48.956;8.130;2023-04-28T13:03:56;99164.09;;;19.49;54.79
55317;BME280;41178;48.956;8.130;2023-04-28T13:08:58;99017.56;;;17.59;57.82
55317;BME280;41178;48.956;8.130;2023-04-28T13:13:59;99132.63;;;18.89;56.37
55317;BME280;41178;48.956;8.130;2023-04-28T13:19:02;99112.91;;;18.27;57.02
55317;BME280;41178;48.956;8.130;2023-04-28T13:24:04;99167.16;;;17.59;60.03
55317;BME280;41178;48.956;8.130;2023-04-28T13:29:06;99129.50;;;18.75;56.25
55317;BME280;41178;48.956;8.130;2023-04-28T13:34:09;99133.06;;;18.31;57.25
55317;BME280;41178;48.956;8.130;2023-04-28T13:39:16;99126.13;;;18.90;55.90
55317;BME280;41178;48.956;8.130;2023-04-28T13:44:20;99081.13;;;17.95;57.42
55317;BME280;41178;48.956;8.130;2023-04-28T13:49:22;99105.59;;;18.94;55.79
55317;BME280;41178;48.956;8.130;2023-04-28T13:54:24;99129.28;;;19.36;55.25
55317;BME280;41178;48.956;8.130;2023-04-28T13:59:26;99035.19;;;18.00;56.92
55317;BME280;41178;48.956;8.130;2023-04-28T14:04:27;99075.84;;;18.50;57.50
55317;BME280;41178;48.956;8.130;2023-04-28T14:09:29;99092.00;;;19.21;56.01
55317;BME280;41178;48.956;8.130;2023-04-28T14:14:32;99053.63;;;19.02;55.68
55317;BME280;41178;48.956;8.130;2023-04-28T14:19:34;99084.06;;;20.53;53.58
55317;BME280;41178;48.956;8.130;2023-04-28T14:24:36;99041.97;;;19.87;54.46
55317;BME280;41178;48.956;8.130;2023-04-28T14:29:38;99053.63;;;20.45;52.80
55317;BME280;41178;48.956;8.130;2023-04-28T14:34:40;99048.41;;;20.23;53.46
55317;BME280;41178;48.956;8.130;2023-04-28T14:39:42;98966.91;;;20.28;52.28
55317;BME280;41178;48.956;8.130;2023-04-28T14:44:44;98956.38;;;20.99;51.21
55317;BME280;41178;48.956;8.130;2023-04-28T14:49:47;99019.31;;;19.55;54.45
55317;BME280;41178;48.956;8.130;2023-04-28T14:54:49;98975.47;;;18.34;56.40
55317;BME280;41178;48.956;8.130;2023-04-28T14:59:51;98993.38;;;19.90;53.81
55317;BME280;41178;48.956;8.130;2023-04-28T15:04:54;98980.13;;;19.46;54.94
55317;BME280;41178;48.956;8.130;2023-04-28T15:09:57;98946.84;;;20.35;53.17
55317;BME280;41178;48.956;8.130;2023-04-28T15:15:00;98956.91;;;20.96;52.19
55317;BME280;41178;48.956;8.130;2023-04-28T15:20:02;98960.56;;;19.39;54.37
55317;BME280;41178;48.956;8.130;2023-04-28T15:25:04;98985.31;;;18.73;56.87
55317;BME280;41178;48.956;8.130;2023-04-28T15:30:06;98978.44;;;18.33;58.04
55317;BME280;41178;48.956;8.130;2023-04-28T15:35:09;98979.19;;;18.55;57.58
55317;BME280;41178;48.956;8.130;2023-04-28T15:40:14;98989.22;;;20.66;53.32
55317;BME280;41178;48.956;8.130;2023-04-28T15:45:18;98975.47;;;19.89;54.82
55317;BME280;41178;48.956;8.130;2023-04-28T15:50:20;98926.38;;;20.06;53.79
55317;BME280;41178;48.956;8.130;2023-04-28T15:55:24;98934.38;;;18.75;57.37
55317;BME280;41178;48.956;8.130;2023-04-28T16:00:26;99000.00;;;20.15;54.93
55317;BME280;41178;48.956;8.130;2023-04-28T16:05:30;98946.28;;;18.74;57.48
55317;BME280;41178;48.956;8.130;2023-04-28T16:10:32;98954.81;;;19.78;55.43
55317;BME280;41178;48.956;8.130;2023-04-28T16:15:34;98900.06;;;18.91;57.61
55317;BME280;41178;48.956;8.130;2023-04-28T16:20:36;98921.97;;;18.84;57.93
55317;BME280;41178;48.956;8.130;2023-04-28T16:25:38;98937.50;;;20.05;55.68
55317;BME280;41178;48.956;8.130;2023-04-28T16:30:41;98952.81;;;20.47;54.42
55317;BME280;41178;48.956;8.130;2023-04-28T16:35:43;98989.75;;;21.35;53.34
55317;BME280;41178;48.956;8.130;2023-04-28T16:40:44;98899.84;;;20.65;53.67
55317;BME280;41178;48.956;8.130;2023-04-28T16:45:46;98909.78;;;19.87;54.91
55317;BME280;41178;48.956;8.130;2023-04-28T16:50:48;98910.97;;;20.89;53.10
55317;BME280;41178;48.956;8.130;2023-04-28T16:55:50;98854.47;;;20.35;53.51
55317;BME280;41178;48.956;8.130;2023-04-28T17:00:51;98953.03;;;22.08;51.28
55317;BME280;41178;48.956;8.130;2023-04-28T17:05:53;98917.94;;;21.36;52.31
55317;BME280;41178;48.956;8.130;2023-04-28T17:10:54;98940.56;;;21.92;51.35
55317;BME280;41178;48.956;8.130;2023-04-28T17:15:57;98899.22;;;21.79;51.87
55317;BME280;41178;48.956;8.130;2023-04-28T17:20:59;98885.25;;;21.47;51.99
55317;BME280;41178;48.956;8.130;2023-04-28T17:26:00;98870.41;;;21.73;51.40
55317;BME280;41178;48.956;8.130;2023-04-28T17:31:04;98896.03;;;21.67;50.97
55317;BME280;41178;48.956;8.130;2023-04-28T17:36:06;98906.84;;;21.83;50.87
55317;BME280;41178;48.956;8.130;2023-04-28T17:41:08;98869.84;;;21.11;52.08
55317;BME280;41178;48.956;8.130;2023-04-28T17:46:09;98923.13;;;20.09;54.96
55317;BME280;41178;48.956;8.130;2023-04-28T17:51:12;98868.72;;;21.83;50.39
55317;BME280;41178;48.956;8.130;2023-04-28T17:56:15;98876.09;;;21.07;52.01
55317;BME280;41178;48.956;8.130;2023-04-28T18:01:17;98927.56;;;21.78;50.29
55317;BME280;41178;48.956;8.130;2023-04-28T18:06:18;98938.78;;;21.67;50.33
55317;BME280;41178;48.956;8.130;2023-04-28T18:11:22;98931.28;;;21.28;51.45
55317;BME280;41178;48.956;8.130;2023-04-28T18:16:25;98899.53;;;20.25;52.60
55317;BME280;41178;48.956;8.130;2023-04-28T18:21:26;98938.88;;;21.41;50.99
55317;BME280;41178;48.956;8.130;2023-04-28T18:26:28;98903.09;;;20.82;51.68
55317;BME280;41178;48.956;8.130;2023-04-28T18:31:30;98919.84;;;21.31;50.27
55317;BME280;41178;48.956;8.130;2023-04-28T18:36:33;98953.94;;;21.88;49.13
55317;BME280;41178;48.956;8.130;2023-04-28T18:41:36;98961.16;;;21.48;49.77
55317;BME280;41178;48.956;8.130;2023-04-28T18:46:38;98971.03;;;22.49;48.14
55317;BME280;41178;48.956;8.130;2023-04-28T18:51:40;98967.00;;;23.10;46.94
55317;BME280;41178;48.956;8.130;2023-04-28T18:56:42;98926.47;;;20.94;49.44
55317;BME280;41178;48.956;8.130;2023-04-28T19:01:46;98969.38;;;20.45;51.14
55317;BME280;41178;48.956;8.130;2023-04-28T19:06:48;98973.66;;;19.52;52.73
55317;BME280;41178;48.956;8.130;2023-04-28T19:11:49;99081.22;;;19.31;54.17
55317;BME280;41178;48.956;8.130;2023-04-28T19:16:51;99057.56;;;19.22;54.46
55317;BME280;41178;48.956;8.130;2023-04-28T19:21:53;99059.81;;;20.25;52.68
55317;BME280;41178;48.956;8.130;2023-04-28T19:26:54;99024.75;;;20.24;52.41
55317;BME280;41178;48.956;8.130;2023-04-28T19:31:58;98981.94;;;19.25;53.10
55317;BME280;41178;48.956;8.130;2023-04-28T19:36:59;99035.94;;;20.43;51.88
55317;BME280;41178;48.956;8.130;2023-04-28T19:42:01;99034.13;;;21.46;49.00
55317;BME280;41178;48.956;8.130;2023-04-28T19:47:04;99036.53;;;20.65;50.88
55317;BME280;41178;48.956;8.130;2023-04-28T19:52:07;99088.47;;;20.74;51.41
55317;BME280;41178;48.956;8.130;2023-04-28T19:57:10;99035.19;;;21.50;50.39
55317;BME280;41178;48.956;8.130;2023-04-28T20:02:12;99019.63;;;20.43;51.65
55317;BME280;41178;48.956;8.130;2023-04-28T20:07:14;99031.53;;;19.20;54.11
55317;BME280;41178;48.956;8.130;2023-04-28T20:12:16;99013.47;;;21.04;50.85
55317;BME280;41178;48.956;8.130;2023-04-28T20:17:18;99041.84;;;22.04;48.73
55317;BME280;41178;48.956;8.130;2023-04-28T20:22:19;99013.13;;;20.44;51.26
55317;BME280;41178;48.956;8.130;2023-04-28T20:27:21;99011.81;;;21.49;48.82
55317;BME280;41178;48.956;8.130;2023-04-28T20:32:23;99051.50;;;21.35;49.45
55317;BME280;41178;48.956;8.130;2023-04-28T20:37:24;99046.41;;;22.19;48.11
55317;BME280;41178;48.956;8.130;2023-04-28T20:42:26;99056.69;;;21.26;49.06
55317;BME280;41178;48.956;8.130;2023-04-28T20:47:29;99026.72;;;22.77;46.28
55317;BME280;41178;48.956;8.130;2023-04-28T20:52:31;99040.41;;;21.05;49.25
55317;BME280;41178;48.956;8.130;2023-04-28T20:57:32;99052.03;;;21.57;48.60
55317;BME280;41178;48.956;8.130;2023-04-28T21:02:34;99066.22;;;21.29;48.70
55317;BME280;41178;48.956;8.130;2023-04-28T21:07:36;99075.19;;;20.93;49.09
55317;BME280;41178;48.956;8.130;2023-04-28T21:12:38;99049.81;;;20.46;49.21
55317;BME280;41178;48.956;8.130;2023-04-28T21:17:39;99117.59;;;20.84;49.65
55317;BME280;41178;48.956;8.130;2023-04-28T21:22:41;99044.19;;;20.84;48.52
55317;BME280;41178;48.956;8.130;2023-04-28T21:27:43;99071.06;;;19.97;50.32
55317;BME280;41178;48.956;8.130;2023-04-28T21:32:45;99001.69;;;21.60;46.94
55317;BME280;41178;48.956;8.130;2023-04-28T21:37:47;99075.22;;;21.39;47.32
55317;BME280;41178;48.956;8.130;2023-04-28T21:42:48;99073.56;;;21.18;47.81
55317;BME280;41178;48.956;8.130;2023-04-28T21:47:50;99092.34;;;21.24;47.43
55317;BME280;41178;48.956;8.130;2023-04-28T21:52:52;99121.41;;;20.83;48.26
55317;BME280;41178;48.956;8.130;2023-04-28T21:57:53;99037.66;;;21.26;47.34
55317;BME280;41178;48.956;8.130;2023-04-28T22:03:00;99021.78;;;20.30;47.66
55317;BME280;41178;48.956;8.130;2023-04-28T22:08:02;99080.22;;;20.33;48.41
55317;BME280;41178;48.956;8.130;2023-04-28T22:13:04;99058.78;;;20.52;48.06
55317;BME280;41178;48.956;8.130;2023-04-28T22:18:07;99075.91;;;19.09;50.60
55317;BME280;41178;48.956;8.130;2023-04-28T22:23:08;99125.56;;;19.85;49.56
55317;BME280;41178;48.956;8.130;2023-04-28T22:28:10;99092.06;;;19.64;49.35
55317;BME280;41178;48.956;8.130;2023-04-28T22:33:12;99092.84;;;19.59;49.21
55317;BME280;41178;48.956;8.130;2023-04-28T22:38:13;99102.38;;;20.88;47.10
55317;BME280;41178;48.956;8.130;2023-04-28T22:43:15;99125.88;;;19.88;48.95
55317;BME280;41178;48.956;8.130;2023-04-28T22:48:17;99116.88;;;19.83;48.94
55317;BME280;41178;48.956;8.130;2023-04-28T22:53:18;99094.94;;;20.58;47.04
55317;BME280;41178;48.956;8.130;2023-04-28T22:58:20;99068.38;;;18.89;49.99
55317;BME280;41178;48.956;8.130;2023-04-28T23:03:22;99059.41;;;19.53;48.16
55317;BME280;41178;48.956;8.130;2023-04-28T23:08:24;99076.19;;;19.88;48.02
55317;BME280;41178;48.956;8.130;2023-04-28T23:13:26;99098.59;;;21.15;46.56
55317;BME280;41178;48.956;8.130;2023-04-28T23:18:30;99072.94;;;19.86;47.56
55317;BME280;41178;48.956;8.130;2023-04-28T23:23:32;99099.78;;;20.40;47.36
55317;BME280;41178;48.956;8.130;2023-04-28T23:28:33;99094.22;;;20.78;46.32
55317;BME280;41178;48.956;8.130;2023-04-28T23:33:35;99090.22;;;19.05;48.87
55317;BME280;41178;48.956;8.130;2023-04-28T23:38:36;99125.13;;;18.74;49.78
55317;BME280;41178;48.956;8.130;2023-04-28T23:43:38;99090.81;;;20.29;47.18
55317;BME280;41178;48.956;8.130;2023-04-28T23:48:40;99147.97;;;20.12;47.74
55317;BME280;41178;48.956;8.130;2023-04-28T23:53:41;99092.91;;;19.69;47.51
55317;BME280;41178;48.956;8.130;2023-04-28T23:58:43;99129.41;;;20.37;46.84
